Huvudsida
METAR-TAF:

METAR-TAF

Flygplatser :

Stockholm-Bromma flygplats

Stockholm, Sverige

latitud: 59-21N, longitud: 017-57E, höjd: 14 m

Aktuellt väderrapport

Denna rapport gjordes för 27 minuter sedan, klockan 15:20 UTC
Vind 10 kt från syd, varierande mellan sydost och sydväst
Temperatur 23°C
Fuktighet 65%
Tryck 1015 hPa
Sikt 10 km eller mer
Inga moln under 1 500 m eller inga cumulonimbus

METAR: ESSB 161520Z 18010KT 140V220 CAVOK 23/16 Q1015

Tid: 17:47 (15:47 UTC)

Väderprognos

Denna rapport gjordes för 1 timme och 17 minuter sedan, klockan 14:30 UTC
Prognos gäller från 16 kl. 15 UTC till 16 kl. 20 UTC
Vind 11 kt från syd
Sikt 10 km eller mer
Inga moln under 1 500 m eller inga cumulonimbus

TAF: ESSB 161430Z 1615/1620 18011KT CAVOK

Aktuella väderrapporter och prognoser från 4000 flygplatser (METAR- och TAF-rapporter).

De tillgängliga stationerna syns som gula och röda prickar på kartan.

För musen över prickarna för att se namnen på stationerna.

Klicka sedan för att få väderrapporter och prognoser.

För att ändra kartan: Klicka på de gröna knapparna med ett svart kors på för att zooma in; den gröna knappen med ett streck på för att zooma ut; eller på de gröna pilarna för angränsande kartor.


METAR-TAF: